Fidato — PB5970 — position and weather

sailwx.info

Track history (hours):
 
Tides and Currents Weather Stations Pressure Air Temp Water Temp Dewpoint Dewpoint Depression Visibility Wind Speed Wind Dir Waves Ship Positions

Fidato

Last reported at 2016-Jul-27 01:33 UTC. Time now 2016-Jul-27 01:55 UTC.
Position N 52°23' E 004°57'.

Length 135 m; draft 2.5 m.

Type: Ship. MMSI: 244670975.

Date/timePositionNaut miles runAvg speedWind from/ knotsBaromVisibWave heightAir tempDewpointWater temp
2016-Jul-27 01:33N 52°23' E 004°57'0 0.0
2016-Jul-27 00:33N 52°23' E 004°57'0 0.0
2016-Jul-26 23:33N 52°23' E 004°57'0 0.0
2016-Jul-26 22:34N 52°23' E 004°57'5 4.8
2016-Jul-26 21:34N 52°25' E 004°50'1 0.8
2016-Jul-26 20:33N 52°24' E 004°49'0 0.0
2016-Jul-26 19:33N 52°24' E 004°49'0 0.3
2016-Jul-26 18:33N 52°24' E 004°50'0 0.0
2016-Jul-26 17:33N 52°24' E 004°50'0 0.0
2016-Jul-26 16:33N 52°24' E 004°50'0 0.0
2016-Jul-26 15:33N 52°24' E 004°50'0 0.0
2016-Jul-26 14:33N 52°24' E 004°50'0 0.0
2016-Jul-26 13:33N 52°24' E 004°50'0 0.0
2016-Jul-26 12:33N 52°24' E 004°50'0 0.0
2016-Jul-26 11:33N 52°24' E 004°50'0 0.0
2016-Jul-26 10:33N 52°24' E 004°50'1 0.8
2016-Jul-26 09:34N 52°25' E 004°50'5 4.6
2016-Jul-26 08:33N 52°23' E 004°57'0 0.0
2016-Jul-26 07:33N 52°23' E 004°57'0 0.0
2016-Jul-26 06:33N 52°23' E 004°57'0 0.0
2016-Jul-26 05:33N 52°23' E 004°57'0 0.0
2016-Jul-26 04:33N 52°23' E 004°57'0 0.0
2016-Jul-26 03:33N 52°23' E 004°57'0 0.0
2016-Jul-26 02:33N 52°23' E 004°57'0 0.0
2016-Jul-26 01:33N 52°23' E 004°57'0 0.0
2016-Jul-26 00:33N 52°23' E 004°57'0 0.0
2016-Jul-25 23:33N 52°23' E 004°57'0 0.0
2016-Jul-25 22:33N 52°23' E 004°57'0 0.0
2016-Jul-25 21:33N 52°23' E 004°57'5 5.0
2016-Jul-25 20:34N 52°19' E 005°01'10 8.2
2016-Jul-25 19:20N 52°08' E 005°02'5 7.0
2016-Jul-25 18:34N 52°04' E 005°06'7 6.9
2016-Jul-25 17:34N 51°59' E 005°14'50 1.5
2016-Jul-24 07:18N 51°40' E 006°29'5 6.5
2016-Jul-24 06:34N 51°37' E 006°35'7 6.8
2016-Jul-24 05:31N 51°32' E 006°42'15 1.5
2016-Jul-23 19:05N 51°16' E 006°42'3 5.6
2016-Jul-23 18:33N 51°14' E 006°45'19 6.2
2016-Jul-23 15:33N 50°57' E 006°58'7 6.5
2016-Jul-23 14:28N 50°50' E 006°59'8 8.7
2016-Jul-23 13:33N 50°44' E 007°07'97 4.8
2016-Jul-22 17:23N 49°23' E 008°30'6 7.3
2016-Jul-22 16:33N 49°17' E 008°28'9 9.1
2016-Jul-22 15:33N 49°09' E 008°22'10 9.9
2016-Jul-22 14:34N 48°59' E 008°17'3 0.1
2016-Jul-21 15:18N 48°58' E 008°14'4 5.6
2016-Jul-21 14:34N 49°01' E 008°18'6 5.8
2016-Jul-21 13:34N 49°06' E 008°22'6 5.7
2016-Jul-21 12:34N 49°12' E 008°23'5 5.1
2016-Jul-21 11:33N 49°16' E 008°27'4 3.9
2016-Jul-21 10:33N 49°20' E 008°27'  
2016-Jul-18 17:27N 50°43' E 007°09'4 4.1
2016-Jul-18 16:26N 50°46' E 007°04'4 4.0
2016-Jul-18 15:26N 50°49' E 007°01'2 2.4
2016-Jul-18 14:29N 50°52' E 007°01'2 2.1
2016-Jul-18 13:26N 50°54' E 006°60'17 3.5
2016-Jul-18 08:31N 51°10' E 006°50'2 1.8
2016-Jul-18 07:33N 51°11' E 006°48'3 3.4
2016-Jul-18 06:34N 51°13' E 006°44'2 2.1
2016-Jul-18 05:33N 51°14' E 006°46'16 1.2
2016-Jul-17 16:30N 51°30' E 006°43'7 3.3
2016-Jul-17 14:21N 51°35' E 006°36'4 4.6
2016-Jul-17 13:33N 51°39' E 006°36'31 4.3
2016-Jul-17 06:30N 51°51' E 005°51'  
Track history (hours):
 
Tides and Currents Weather Stations Pressure Air Temp Water Temp Dewpoint Dewpoint Depression Visibility Wind Speed Wind Dir Waves Ship Positions

Fidato

Last reported at 2016-Jul-27 01:33 UTC. Time now 2016-Jul-27 01:55 UTC.
Position N 52°23' E 004°57'.

Length 135 m; draft 2.5 m.

Type: Ship. MMSI: 244670975.

Date/timePositionNaut miles runAvg speedWind from/ knotsBaromVisibWave heightAir tempDewpointWater temp
2016-Jul-27 01:33N 52°23' E 004°57'0 0.0
2016-Jul-27 00:33N 52°23' E 004°57'0 0.0
2016-Jul-26 23:33N 52°23' E 004°57'0 0.0
2016-Jul-26 22:34N 52°23' E 004°57'5 4.8
2016-Jul-26 21:34N 52°25' E 004°50'1 0.8
2016-Jul-26 20:33N 52°24' E 004°49'0 0.0
2016-Jul-26 19:33N 52°24' E 004°49'0 0.3
2016-Jul-26 18:33N 52°24' E 004°50'0 0.0
2016-Jul-26 17:33N 52°24' E 004°50'0 0.0
2016-Jul-26 16:33N 52°24' E 004°50'0 0.0
2016-Jul-26 15:33N 52°24' E 004°50'0 0.0
2016-Jul-26 14:33N 52°24' E 004°50'0 0.0
2016-Jul-26 13:33N 52°24' E 004°50'0 0.0
2016-Jul-26 12:33N 52°24' E 004°50'0 0.0
2016-Jul-26 11:33N 52°24' E 004°50'0 0.0
2016-Jul-26 10:33N 52°24' E 004°50'1 0.8
2016-Jul-26 09:34N 52°25' E 004°50'5 4.6
2016-Jul-26 08:33N 52°23' E 004°57'0 0.0
2016-Jul-26 07:33N 52°23' E 004°57'0 0.0
2016-Jul-26 06:33N 52°23' E 004°57'0 0.0
2016-Jul-26 05:33N 52°23' E 004°57'0 0.0
2016-Jul-26 04:33N 52°23' E 004°57'0 0.0
2016-Jul-26 03:33N 52°23' E 004°57'0 0.0
2016-Jul-26 02:33N 52°23' E 004°57'0 0.0
2016-Jul-26 01:33N 52°23' E 004°57'0 0.0
2016-Jul-26 00:33N 52°23' E 004°57'0 0.0
2016-Jul-25 23:33N 52°23' E 004°57'0 0.0
2016-Jul-25 22:33N 52°23' E 004°57'0 0.0
2016-Jul-25 21:33N 52°23' E 004°57'5 5.0
2016-Jul-25 20:34N 52°19' E 005°01'10 8.2
2016-Jul-25 19:20N 52°08' E 005°02'5 7.0
2016-Jul-25 18:34N 52°04' E 005°06'7 6.9
2016-Jul-25 17:34N 51°59' E 005°14'50 1.5
2016-Jul-24 07:18N 51°40' E 006°29'5 6.5
2016-Jul-24 06:34N 51°37' E 006°35'7 6.8
2016-Jul-24 05:31N 51°32' E 006°42'15 1.5
2016-Jul-23 19:05N 51°16' E 006°42'3 5.6
2016-Jul-23 18:33N 51°14' E 006°45'19 6.2
2016-Jul-23 15:33N 50°57' E 006°58'7 6.5
2016-Jul-23 14:28N 50°50' E 006°59'8 8.7
2016-Jul-23 13:33N 50°44' E 007°07'97 4.8
2016-Jul-22 17:23N 49°23' E 008°30'6 7.3
2016-Jul-22 16:33N 49°17' E 008°28'9 9.1
2016-Jul-22 15:33N 49°09' E 008°22'10 9.9
2016-Jul-22 14:34N 48°59' E 008°17'3 0.1
2016-Jul-21 15:18N 48°58' E 008°14'4 5.6
2016-Jul-21 14:34N 49°01' E 008°18'6 5.8
2016-Jul-21 13:34N 49°06' E 008°22'6 5.7
2016-Jul-21 12:34N 49°12' E 008°23'5 5.1
2016-Jul-21 11:33N 49°16' E 008°27'4 3.9
2016-Jul-21 10:33N 49°20' E 008°27'  
2016-Jul-18 17:27N 50°43' E 007°09'4 4.1
2016-Jul-18 16:26N 50°46' E 007°04'4 4.0
2016-Jul-18 15:26N 50°49' E 007°01'2 2.4
2016-Jul-18 14:29N 50°52' E 007°01'2 2.1
2016-Jul-18 13:26N 50°54' E 006°60'17 3.5
2016-Jul-18 08:31N 51°10' E 006°50'2 1.8
2016-Jul-18 07:33N 51°11' E 006°48'3 3.4
2016-Jul-18 06:34N 51°13' E 006°44'2 2.1
2016-Jul-18 05:33N 51°14' E 006°46'16 1.2
2016-Jul-17 16:30N 51°30' E 006°43'7 3.3
2016-Jul-17 14:21N 51°35' E 006°36'4 4.6
2016-Jul-17 13:33N 51°39' E 006°36'31 4.3
2016-Jul-17 06:30N 51°51' E 005°51'  

Dump ship's entire track history